Terminal Aerodrome Forecast
Issued by NWS Mt. Holly, NJ

Home | Current Version | Previous Version | Text Only | Print | Product List | Glossary On
Versions: 1 2 3 4 5 6 7 8 9 10 11 12 13 14 15 16 17 18 19 20 21 22 23 24
338
FTUS41 KPHI 170531
TAFRDG
TAF
KRDG 170531Z 1706/1806 00000KT P6SM OVC025
     FM170800 00000KT P6SM VCSH OVC015
     FM171200 09003KT 6SM -RA BR OVC011
      TEMPO 1716/1720 3SM RA BR OVC009
     FM172100 VRB03KT 2SM -DZ BR OVC005=

USA.gov is the U.S. government's official web portal to all federal, state and local government web resources and services.